Aérodrome :
LOGIN :

S'inscrire | Disclaimer

   EN    FR    IT 

 










Légende :    VFR   VFR Marginal   IFR   IFR Intensif   IFR Très Intensif
Visi : 
Plafond : 
>= 8 km
>= 3000ft
5 à 8 km
1000 à 3000 ft
1500m à 5 km
500 à 1000 ft
800 à 1500m
200 à 500 ft
< 800m
< 200 ft
Symboles :   Orages  Brouillard  Fortes neiges  Fortes précipitations  Vent > 20 kt
SIGMETs :   Divers  Orages  Givrage  Turbulence  Onde Orograph.  Cendres Volcan.






- Altitude de l'aérodrome : 939 ft


LKKB - Kbely Air Base

DERNIER METAR :
  • 011500Z 36003KT 0800 R24/P2000N SN FZFG FEW003 OVC028 M02/M02 Q1003 NOSIG

METARs EXPIRÉS :
  • 011400Z 36003KT 330V040 1000 R24/1700N -SN BR SCT004 OVC025 M02/M02 Q1003 NOSIG
  • 011300Z 36003KT 1000 R24/1500D -SN BR SCT004 OVC021 M02/M02 Q1003 NOSIG
  • 011200Z 01003KT 340V040 1000 R24/1300U -SN BR BKN003 OVC020 M02/M02 Q1003 NOSIG
  • 011100Z 01003KT 350V050 1000 R24/1500U -SN BR SCT004 BKN015 OVC030 M02/M02 Q1003 NOSIG

TAF TAF LKKB
Valide du 01 à 12h jusqu'au 02 à 12h UTC


011100Z 0112/0212 35004KT 1500 SN BR OVC006
TEMPO 0112/0212 0600 SN FZFG OVC002
BECMG 0200/0202 35008KT
BECMG 0210/0212 01012KT



MET'MAP, la Météo Aéronautique d'un coup d'oeil ! - Copyright ORBIFLY Décembre 2007 - Disclaimer

ORBIFLY MET'MAP TEAM :

Programmation & Développement : Alexandra Zaïnal
Sur une idée originale de : Baudouin d'Aumeries
Soutien technique & logistique : Manuel Goepfert
Assistance : Marc-Olivier Méhu




SOURCES & CREDITS :

   NOAA